This is the latest recevied weather packets stored in our database for station/object HG8LXL-2. If no packets are shown the sender has not sent any weather packets the latest 10 day(s).
| Time | Temp. | Humidity | Pressure | Rain* | Wind** | Luminosity | Snow |
|---|---|---|---|---|---|---|---|
| 1777878002 | 24.44° C | 18% | 1016.2 hPa | - | - | - | - |
| 1777849201 | 15° C | 41% | 1016.4 hPa | - | - | - | - |
| 1777848901 | 15° C | 41% | 1016.4 hPa | - | - | - | - |
| 1777848601 | 15° C | 41% | 1016.4 hPa | - | - | - | - |
| 1777848301 | 15.56° C | 41% | 1016.4 hPa | - | - | - | - |
| 1777848001 | 15.56° C | 42% | 1016.3 hPa | - | - | - | - |
| 1777847702 | 15.56° C | 41% | 1016.3 hPa | - | - | - | - |
| 1777847401 | 15.56° C | 41% | 1016.3 hPa | - | - | - | - |
| 1777847101 | 16.11° C | 39% | 1016.2 hPa | - | - | - | - |
| 1777846801 | 16.11° C | 38% | 1016.3 hPa | - | - | - | - |
| 1777846501 | 16.11° C | 38% | 1016.4 hPa | - | - | - | - |
| 1777846201 | 16.11° C | 37% | 1016.3 hPa | - | - | - | - |
| 1777845901 | 16.11° C | 37% | 1016.4 hPa | - | - | - | - |
| 1777845601 | 16.11° C | 37% | 1016.3 hPa | - | - | - | - |
| 1777845301 | 16.67° C | 37% | 1016.3 hPa | - | - | - | - |
| 1777845001 | 16.11° C | 38% | 1016.3 hPa | - | - | - | - |
| 1777844701 | 16.11° C | 39% | 1016.3 hPa | - | - | - | - |
| 1777844401 | 16.67° C | 37% | 1016.2 hPa | - | - | - | - |
| 1777844101 | 16.67° C | 37% | 1016.1 hPa | - | - | - | - |
| 1777843801 | 16.67° C | 37% | 1016.2 hPa | - | - | - | - |
| 1777843501 | 17.22° C | 36% | 1016.1 hPa | - | - | - | - |
| 1777843201 | 17.22° C | 36% | 1016.2 hPa | - | - | - | - |
| 1777842901 | 17.22° C | 35% | 1016.1 hPa | - | - | - | - |
| 1777842601 | 17.22° C | 34% | 1016.2 hPa | - | - | - | - |
| 1777842301 | 17.22° C | 35% | 1016.2 hPa | - | - | - | - |
* Rain since midnight (hover to see other rain measurements)
** Current wind speed in m/s (hover to see current wind gust speed)